Time;durP1;ratioP1;P1;durP2;ratioP2;P2;SDS_P1;SDS_P2;PMS_P1;PMS_P2;Temp;Humidity;BMP_temperature;BMP_pressure;BME280_temperature;BME280_humidity;BME280_pressure;Samples;Min_cycle;Max_cycle;Signal;HPM_P1;HPM_P2
2022/12/23 00:01:14;;;;;;;20.10;6.00;;;;;;;13.46;76.58;100423.88;4972395;28;20023;-42
2022/12/23 00:03:39;;;;;;;23.35;6.07;;;;;;;13.19;76.89;100431.84;4971678;28;20022;-41
2022/12/23 00:06:16;;;;;;;20.05;6.00;;;;;;;13.05;77.47;100442.38;4972092;28;20097;-39
2022/12/23 00:08:43;;;;;;;17.23;6.18;;;;;;;13.01;78.20;100441.50;4972013;28;20026;-42
2022/12/23 00:11:27;;;;;;;18.50;5.95;;;;;;;13.24;77.11;100437.94;4971636;28;20435;-42
2022/12/23 00:16:36;;;;;;;18.92;6.28;;;;;;;13.27;76.78;100436.19;4973482;28;20097;-44
2022/12/23 00:19:02;;;;;;;20.55;6.40;;;;;;;13.32;76.63;100439.66;4971796;28;20019;-43
2022/12/23 00:21:27;;;;;;;18.00;6.30;;;;;;;13.64;75.37;100434.25;4971345;28;20023;-40
2022/12/23 00:23:53;;;;;;;20.02;6.15;;;;;;;13.37;76.40;100435.25;4971368;28;20113;-42
2022/12/23 00:26:23;;;;;;;26.48;7.20;;;;;;;13.50;76.00;100438.69;4971604;28;20049;-44
2022/12/23 00:28:49;;;;;;;21.70;6.20;;;;;;;13.16;76.99;100445.84;4971423;28;20030;-40
2022/12/23 00:31:17;;;;;;;21.13;6.13;;;;;;;13.33;76.92;100444.03;4971157;28;20035;-41
2022/12/23 00:33:45;;;;;;;16.33;6.00;;;;;;;13.53;75.99;100443.94;4971501;28;20026;-43
2022/12/23 00:36:29;;;;;;;21.80;6.60;;;;;;;13.42;76.12;100440.47;4971222;28;20023;-44
2022/12/23 00:44:27;;;;;;;29.92;8.02;;;;;;;13.08;77.53;100449.31;4971470;28;20062;-42
2022/12/23 00:46:52;;;;;;;20.85;6.88;;;;;;;13.42;76.80;100452.72;4971161;28;20452;-40
2022/12/23 00:52:05;;;;;;;22.50;7.20;;;;;;;13.75;75.15;100452.50;4971229;28;20046;-42
2022/12/23 00:54:31;;;;;;;23.38;7.55;;;;;;;13.79;74.95;100452.47;4971517;28;20043;-40
2022/12/23 00:56:57;;;;;;;22.63;7.82;;;;;;;13.71;74.85;100456.91;4970849;28;20464;-42
2022/12/23 00:59:22;;;;;;;26.35;8.05;;;;;;;13.60;75.08;100460.47;4971359;28;20039;-40
2022/12/23 01:07:36;;;;;;;18.05;6.95;;;;;;;13.46;75.57;100476.25;5007379;28;20065;-40
2022/12/23 01:10:02;;;;;;;16.83;6.40;;;;;;;13.55;75.76;100476.19;4986772;28;20367;-40
2022/12/23 01:12:28;;;;;;;17.67;6.93;;;;;;;13.35;75.62;100473.69;4970656;28;20030;-41
2022/12/23 01:14:53;;;;;;;21.83;6.80;;;;;;;13.34;75.79;100471.94;4971759;28;20065;-40
2022/12/23 01:17:19;;;;;;;17.90;6.38;;;;;;;13.30;75.94;100469.31;4974895;28;20023;-43
2022/12/23 01:19:44;;;;;;;15.70;5.53;;;;;;;13.13;75.78;100471.13;4975229;28;20027;-41
2022/12/23 01:22:09;;;;;;;13.38;4.93;;;;;;;13.42;75.38;100471.06;4974394;28;20022;-40
2022/12/23 01:24:34;;;;;;;12.60;4.72;;;;;;;13.47;75.13;100477.13;4975027;28;20033;-40
2022/12/23 01:27:00;;;;;;;11.45;4.10;;;;;;;13.24;75.92;100480.69;4975037;28;20046;-39
2022/12/23 01:29:27;;;;;;;11.95;4.18;;;;;;;13.16;75.69;100486.84;4974921;28;20384;-43
2022/12/23 01:31:52;;;;;;;10.95;4.22;;;;;;;13.04;76.17;100494.72;4973942;28;20093;-40
2022/12/23 01:34:18;;;;;;;11.43;4.05;;;;;;;13.27;75.71;100503.38;4974349;28;20118;-40
2022/12/23 01:36:43;;;;;;;9.32;3.80;;;;;;;13.12;75.89;100501.69;4974305;28;20081;-40
2022/12/23 01:39:09;;;;;;;10.27;3.78;;;;;;;12.97;75.87;100514.78;4974562;28;20030;-37
2022/12/23 01:44:52;;;;;;;10.70;4.40;;;;;;;13.10;76.02;100511.28;4974711;28;20038;-39
2022/12/23 01:47:36;;;;;;;10.60;4.70;;;;;;;12.86;76.50;100525.28;4974267;28;20531;-39
2022/12/23 01:50:07;;;;;;;16.48;5.95;;;;;;;13.07;76.12;100529.56;4974674;28;20384;-41
2022/12/23 01:52:40;;;;;;;16.20;6.78;;;;;;;12.91;76.51;100531.38;4972432;28;20525;-41
2022/12/23 01:55:06;;;;;;;15.80;7.45;;;;;;;13.05;76.13;100533.97;4974039;28;20074;-41
2022/12/23 01:57:34;;;;;;;15.35;7.40;;;;;;;13.12;75.51;100526.94;4973955;28;20025;-41
2022/12/23 02:05:29;;;;;;;17.67;8.93;;;;;;;12.79;76.47;100556.66;4974004;28;20066;-41
2022/12/23 02:11:17;;;;;;;19.08;8.55;;;;;;;12.96;75.53;100557.53;4974423;28;20042;-40
2022/12/23 02:16:47;;;;;;;22.70;11.38;;;;;;;13.05;75.92;100556.66;4973650;28;20114;-43
2022/12/23 02:19:22;;;;;;;18.77;10.73;;;;;;;13.13;75.25;100568.84;4973680;28;20037;-43
2022/12/23 02:22:08;;;;;;;21.27;12.75;;;;;;;13.19;75.17;100574.06;4974452;28;20023;-42
2022/12/23 02:24:58;;;;;;;19.23;11.60;;;;;;;13.21;74.69;100576.69;4974113;28;20039;-41
2022/12/23 02:27:29;;;;;;;20.08;12.30;;;;;;;13.07;75.15;100576.69;4972636;28;20076;-39
2022/12/23 02:30:13;;;;;;;22.13;12.27;;;;;;;13.04;75.22;100576.72;4974114;28;20033;-39
2022/12/23 02:33:02;;;;;;;23.47;10.87;;;;;;;13.02;75.17;100587.16;4973511;28;20031;-40
2022/12/23 02:35:33;;;;;;;20.05;10.90;;;;;;;13.16;74.84;100592.44;4973863;28;20081;-40
2022/12/23 02:38:21;;;;;;;20.58;10.52;;;;;;;13.29;74.67;100601.13;4973507;28;20029;-40
2022/12/23 02:40:52;;;;;;;15.60;9.30;;;;;;;13.32;74.12;100599.38;4972935;28;20054;-41
2022/12/23 02:43:20;;;;;;;16.98;9.40;;;;;;;13.14;74.61;100601.13;4973311;28;20062;-43
2022/12/23 02:45:58;;;;;;;16.70;8.50;;;;;;;13.23;74.22;100601.16;4973421;28;20027;-42
2022/12/23 02:48:35;;;;;;;17.80;8.43;;;;;;;13.04;74.61;100602.88;4973357;28;20034;-40
2022/12/23 02:51:03;;;;;;;13.45;7.57;;;;;;;13.08;74.53;100596.75;4972926;28;20090;-42
2022/12/23 02:53:36;;;;;;;12.13;6.45;;;;;;;13.14;74.19;100598.53;4973010;28;20118;-40
2022/12/23 02:56:04;;;;;;;13.65;6.53;;;;;;;13.06;74.22;100595.00;4972915;28;20031;-39
2022/12/23 02:58:44;;;;;;;11.75;6.30;;;;;;;13.16;74.26;100596.78;4972909;28;20484;-41
2022/12/23 03:01:11;;;;;;;13.68;6.80;;;;;;;13.19;73.80;100596.75;4972530;28;20118;-39
2022/12/23 03:03:38;;;;;;;11.52;6.43;;;;;;;13.14;73.49;100593.28;4973948;28;20563;-40
2022/12/23 03:06:18;;;;;;;11.02;6.03;;;;;;;13.03;74.70;100595.91;4972993;28;20135;-41
2022/12/23 03:08:44;;;;;;;10.40;5.72;;;;;;;13.12;73.89;100588.03;4973009;28;20050;-39
2022/12/23 03:11:15;;;;;;;10.15;5.78;;;;;;;13.27;73.48;100582.81;4972454;28;20445;-41
2022/12/23 03:14:17;;;;;;;11.20;6.43;;;;;;;13.08;73.83;100590.66;4972763;28;20130;-38
2022/12/23 03:16:57;;;;;;;12.77;6.90;;;;;;;13.03;73.90;100595.91;4972475;28;20460;-40
2022/12/23 03:19:50;;;;;;;11.27;6.60;;;;;;;13.12;73.81;100592.38;4972963;28;20591;-40
2022/12/23 03:22:24;;;;;;;13.18;7.40;;;;;;;13.15;73.59;100595.91;4972563;28;20113;-39
2022/12/23 03:25:07;;;;;;;;;;;;;;;13.12;73.79;100608.06;4973257;28;20046;-44
2022/12/23 03:28:04;;;;;;;12.52;6.93;;;;;;;13.10;73.73;100604.63;4972941;28;19917;-41
2022/12/23 03:30:33;;;;;;;13.55;7.07;;;;;;;13.01;73.52;100602.88;4980456;28;20129;-40
2022/12/23 03:33:15;;;;;;;13.90;6.60;;;;;;;13.12;73.48;100605.47;4973850;28;20023;-40
2022/12/23 03:35:50;;;;;;;13.90;7.45;;;;;;;12.99;73.75;100608.09;4973746;28;20035;-40
2022/12/23 03:38:17;;;;;;;14.60;8.13;;;;;;;12.89;74.30;100602.88;4973507;28;20073;-42
2022/12/23 03:40:48;;;;;;;16.00;8.23;;;;;;;12.95;74.03;100603.75;4973680;28;20106;-42
2022/12/23 03:43:24;;;;;;;18.40;8.20;;;;;;;12.94;74.13;100598.50;4974496;28;20147;-42
2022/12/23 03:45:55;;;;;;;15.90;8.75;;;;;;;12.95;73.93;100597.63;4972201;28;20484;-40
2022/12/23 03:48:38;;;;;;;16.92;7.82;;;;;;;12.70;75.01;100602.00;4972233;28;20222;-40
2022/12/23 03:51:12;;;;;;;16.02;7.05;;;;;;;12.83;74.67;100603.75;4973876;28;20034;-40
2022/12/23 03:53:42;;;;;;;15.17;7.40;;;;;;;12.73;74.42;100609.88;4975514;28;20321;-39
2022/12/23 03:56:27;;;;;;;14.65;7.65;;;;;;;12.93;74.35;100617.69;4975974;28;20109;-39
2022/12/23 03:58:58;;;;;;;14.10;7.20;;;;;;;12.59;75.04;100615.06;4975832;28;20089;-41
2022/12/23 04:01:54;;;;;;;11.52;6.65;;;;;;;12.87;74.65;100618.56;4975900;28;20031;-42
2022/12/23 04:04:22;;;;;;;12.32;6.80;;;;;;;12.53;75.34;100636.00;4980549;28;20027;-39
2022/12/23 04:06:56;;;;;;;14.00;7.25;;;;;;;12.54;75.48;100629.88;4973859;28;20031;-41
2022/12/23 04:09:25;;;;;;;14.32;7.40;;;;;;;12.76;74.70;100624.66;4972220;28;20046;-40
2022/12/23 04:11:51;;;;;;;15.20;7.28;;;;;;;12.70;74.93;100629.88;4971313;28;20023;-42
2022/12/23 04:14:17;;;;;;;16.25;7.18;;;;;;;12.91;74.27;100629.91;4972947;28;20026;-42
2022/12/23 04:16:44;;;;;;;16.42;8.13;;;;;;;12.62;74.98;100631.66;4974290;28;20451;-40
2022/12/23 04:19:09;;;;;;;16.75;8.50;;;;;;;12.59;75.32;100637.75;4973387;28;20460;-40
2022/12/23 04:21:35;;;;;;;18.70;8.50;;;;;;;12.69;75.33;100636.00;4971450;28;20138;-41
2022/12/23 04:24:00;;;;;;;16.73;8.30;;;;;;;12.80;75.15;100632.53;4971596;28;20491;-41
2022/12/23 04:26:25;;;;;;;19.23;9.13;;;;;;;12.70;75.10;100633.38;4971527;28;20026;-43
2022/12/23 04:28:50;;;;;;;17.75;9.00;;;;;;;12.73;74.83;100628.16;4971373;28;20030;-41
2022/12/23 04:31:16;;;;;;;17.52;8.88;;;;;;;12.90;74.43;100636.03;4971051;28;20030;-40
2022/12/23 04:33:41;;;;;;;14.25;7.95;;;;;;;13.11;73.61;100627.31;4971242;28;20618;-41
2022/12/23 04:36:06;;;;;;;14.13;8.18;;;;;;;13.10;73.62;100626.44;4971512;28;20089;-38
2022/12/23 04:38:32;;;;;;;19.27;8.52;;;;;;;12.90;74.26;100631.66;4971333;28;20110;-43
2022/12/23 04:40:57;;;;;;;16.88;8.02;;;;;;;13.06;73.70;100616.81;4970931;28;20419;-42
2022/12/23 04:43:22;;;;;;;15.20;8.43;;;;;;;13.08;73.92;100620.31;4971170;28;20073;-44
2022/12/23 04:45:51;;;;;;;16.00;8.45;;;;;;;13.04;73.73;100613.34;4971048;28;20061;-40
2022/12/23 04:48:17;;;;;;;18.13;8.65;;;;;;;12.88;74.11;100614.19;4970878;28;20034;-43
2022/12/23 04:50:42;;;;;;;19.25;8.93;;;;;;;12.79;74.15;100617.72;4970320;28;20391;-40
2022/12/23 04:53:08;;;;;;;17.73;9.00;;;;;;;12.76;74.72;100622.06;4971068;28;20077;-40
2022/12/23 04:55:33;;;;;;;18.85;8.90;;;;;;;12.93;74.02;100617.69;4971048;28;20031;-40
2022/12/23 04:57:58;;;;;;;15.05;8.25;;;;;;;12.91;74.32;100628.19;4970846;28;20472;-39
2022/12/23 05:00:24;;;;;;;16.50;8.50;;;;;;;13.02;74.00;100617.69;4970760;28;20047;-41
2022/12/23 05:02:49;;;;;;;17.50;8.70;;;;;;;13.09;73.75;100614.22;4970680;28;20027;-40
2022/12/23 05:05:14;;;;;;;16.77;8.35;;;;;;;13.07;73.85;100622.91;4970794;28;20027;-40
2022/12/23 05:07:40;;;;;;;18.95;8.52;;;;;;;12.99;73.74;100621.19;4970901;28;20026;-42
2022/12/23 05:10:06;;;;;;;20.27;8.82;;;;;;;12.84;74.16;100634.28;4970983;28;20040;-40
2022/12/23 05:12:31;;;;;;;20.92;9.02;;;;;;;12.77;74.46;100629.03;4970297;28;20681;-40
2022/12/23 05:14:56;;;;;;;20.48;9.38;;;;;;;12.84;74.44;100636.88;4970721;28;20037;-42
2022/12/23 05:17:22;;;;;;;19.83;8.88;;;;;;;12.97;74.06;100643.88;4970789;28;20221;-40
2022/12/23 05:19:47;;;;;;;17.65;8.07;;;;;;;13.10;73.58;100642.13;4970791;28;20365;-40
2022/12/23 05:22:13;;;;;;;17.70;7.80;;;;;;;13.09;73.76;100643.00;4970491;28;20037;-41
2022/12/23 05:24:38;;;;;;;15.80;8.10;;;;;;;13.13;73.57;100641.28;4971149;28;20035;-41
2022/12/23 05:27:03;;;;;;;17.80;8.40;;;;;;;12.92;74.15;100655.22;4971099;28;20041;-40
2022/12/23 05:29:29;;;;;;;20.65;9.27;;;;;;;12.96;74.14;100665.69;4970707;28;20019;-44
2022/12/23 05:31:54;;;;;;;18.75;8.70;;;;;;;13.06;73.86;100661.31;4970377;28;20027;-40
2022/12/23 05:34:19;;;;;;;16.42;8.35;;;;;;;13.10;73.83;100663.06;4970913;28;20023;-41
2022/12/23 05:36:45;;;;;;;20.20;8.93;;;;;;;13.11;73.72;100661.31;4970751;28;20037;-43
2022/12/23 05:39:10;;;;;;;22.75;9.60;;;;;;;13.10;73.89;100651.72;4970675;28;20400;-41
2022/12/23 05:41:35;;;;;;;17.27;8.68;;;;;;;13.14;73.68;100649.13;4970384;28;20030;-42
2022/12/23 05:44:01;;;;;;;19.80;9.32;;;;;;;13.12;73.69;100648.25;4970900;28;20033;-41
2022/12/23 05:46:26;;;;;;;19.17;8.95;;;;;;;13.16;73.71;100647.41;4970605;28;20023;-43
2022/12/23 05:48:51;;;;;;;20.50;9.15;;;;;;;13.17;73.72;100643.91;4970513;28;20042;-41
2022/12/23 05:51:17;;;;;;;25.45;9.63;;;;;;;13.19;73.72;100642.13;4970228;28;20031;-42
2022/12/23 05:53:42;;;;;;;19.80;8.52;;;;;;;13.19;73.64;100626.44;4970619;28;20031;-41
2022/12/23 05:56:07;;;;;;;22.70;8.98;;;;;;;13.23;73.76;100622.09;4970801;28;20106;-39
2022/12/23 05:58:33;;;;;;;20.67;9.13;;;;;;;13.25;73.66;100610.72;4970616;28;20046;-39
2022/12/23 06:01:01;;;;;;;20.95;8.95;;;;;;;13.25;73.54;100608.09;4972094;28;20031;-42
2022/12/23 06:03:26;;;;;;;18.52;8.85;;;;;;;13.26;73.63;100602.00;4976815;28;20027;-40
2022/12/23 06:05:51;;;;;;;20.58;9.07;;;;;;;13.23;73.78;100604.63;4976830;28;20026;-40
2022/12/23 06:08:17;;;;;;;20.02;8.20;;;;;;;13.20;73.70;100599.38;4974728;28;20058;-41
2022/12/23 06:10:43;;;;;;;25.48;8.55;;;;;;;13.07;73.70;100597.63;4973994;28;20038;-40
2022/12/23 06:13:08;;;;;;;18.70;8.50;;;;;;;13.12;73.80;100601.13;4974384;28;20106;-40
2022/12/23 06:15:34;;;;;;;20.73;7.82;;;;;;;13.15;73.82;100601.16;4974526;28;20023;-42
2022/12/23 06:17:59;;;;;;;19.30;8.15;;;;;;;13.14;73.73;100614.22;4973734;28;20422;-38
2022/12/23 06:20:24;;;;;;;18.23;8.23;;;;;;;13.15;73.82;100611.63;4973600;28;20034;-40
2022/12/23 06:22:50;;;;;;;17.85;7.88;;;;;;;13.14;73.57;100622.06;4974304;28;20416;-43
2022/12/23 06:25:15;;;;;;;21.02;8.60;;;;;;;13.09;73.73;100624.69;4973950;28;20023;-41
2022/12/23 06:27:40;;;;;;;19.50;8.32;;;;;;;13.06;73.86;100635.13;4973790;28;20019;-40
2022/12/23 06:30:06;;;;;;;17.65;8.00;;;;;;;13.10;73.82;100642.13;4973754;28;20352;-42
2022/12/23 06:32:32;;;;;;;19.77;8.18;;;;;;;13.21;73.58;100637.78;4973630;28;20088;-43
2022/12/23 06:34:57;;;;;;;18.73;7.93;;;;;;;13.24;73.65;100635.16;4973799;28;20026;-40
2022/12/23 06:37:22;;;;;;;16.58;7.28;;;;;;;13.23;73.69;100637.78;4973912;28;20497;-43
2022/12/23 06:39:48;;;;;;;18.80;7.47;;;;;;;13.22;73.58;100646.50;4973526;28;20111;-43
2022/12/23 06:42:13;;;;;;;18.50;8.15;;;;;;;13.27;73.46;100643.00;4973247;28;20626;-40
2022/12/23 06:44:38;;;;;;;18.30;7.57;;;;;;;13.26;73.51;100641.25;4973489;28;20447;-39
2022/12/23 06:47:04;;;;;;;19.33;8.00;;;;;;;13.27;73.53;100635.16;4973041;28;20542;-40
2022/12/23 06:49:29;;;;;;;19.73;8.10;;;;;;;13.28;73.60;100636.91;4973315;28;20026;-41
2022/12/23 06:51:54;;;;;;;19.02;7.70;;;;;;;13.30;73.48;100635.13;4972871;28;20028;-40
2022/12/23 06:54:19;;;;;;;21.42;8.13;;;;;;;13.30;73.98;100637.75;4973727;28;20034;-40
2022/12/23 06:56:45;;;;;;;20.50;8.07;;;;;;;13.29;73.56;100635.16;4973464;28;20085;-41
2022/12/23 06:59:10;;;;;;;20.38;8.15;;;;;;;13.28;73.58;100647.38;4973138;28;20090;-41
2022/12/23 07:01:35;;;;;;;20.48;8.32;;;;;;;13.29;73.68;100650.88;4972796;28;20022;-40
2022/12/23 07:04:01;;;;;;;21.60;8.68;;;;;;;13.29;73.62;100650.88;4973113;28;20117;-40
2022/12/23 07:06:27;;;;;;;22.70;8.63;;;;;;;13.29;73.47;100651.75;4973194;28;20400;-39
2022/12/23 07:08:52;;;;;;;23.20;9.02;;;;;;;13.30;73.69;100663.94;4972954;28;20042;-41
2022/12/23 07:11:17;;;;;;;21.92;8.93;;;;;;;13.24;73.65;100661.31;4972692;28;20054;-41
2022/12/23 07:13:45;;;;;;;20.85;8.57;;;;;;;13.33;73.53;100658.72;4972266;28;20029;-40
2022/12/23 07:16:10;;;;;;;19.63;8.50;;;;;;;13.38;73.11;100650.84;4972954;28;20023;-43
2022/12/23 07:18:35;;;;;;;22.75;9.40;;;;;;;13.32;73.17;100650.84;4972703;28;20022;-42
2022/12/23 07:21:02;;;;;;;24.48;9.50;;;;;;;13.25;73.57;100656.97;4972326;28;20026;-41
2022/12/23 07:23:28;;;;;;;21.52;9.20;;;;;;;13.30;73.35;100649.97;4972703;28;20085;-40
2022/12/23 07:25:54;;;;;;;24.63;10.15;;;;;;;13.29;73.46;100646.50;4972403;28;20034;-42
2022/12/23 07:28:20;;;;;;;24.73;9.88;;;;;;;13.31;73.43;100642.13;4972398;28;20037;-40
2022/12/23 07:30:46;;;;;;;24.35;9.50;;;;;;;13.36;73.37;100644.72;4972263;28;20051;-40
2022/12/23 07:33:11;;;;;;;26.05;10.13;;;;;;;13.32;73.47;100643.88;4972746;28;20040;-41
2022/12/23 07:35:37;;;;;;;22.08;9.75;;;;;;;13.33;73.54;100642.13;4972770;28;20062;-39
2022/12/23 07:38:02;;;;;;;24.88;10.00;;;;;;;13.34;73.20;100642.13;4972329;28;20054;-41
2022/12/23 07:40:27;;;;;;;28.88;11.15;;;;;;;13.31;73.32;100626.41;4972363;28;20408;-39
2022/12/23 07:42:55;;;;;;;27.27;11.27;;;;;;;13.32;73.50;100632.53;4972597;28;20439;-40
2022/12/23 07:45:21;;;;;;;27.95;10.65;;;;;;;13.35;73.22;100630.78;4972443;28;20031;-41
2022/12/23 07:47:46;;;;;;;26.58;11.25;;;;;;;13.34;73.40;100620.31;4972759;28;20026;-40
2022/12/23 07:50:12;;;;;;;27.83;10.98;;;;;;;13.34;73.44;100623.81;4975512;28;20030;-40
2022/12/23 07:52:38;;;;;;;30.63;11.63;;;;;;;13.25;73.71;100625.56;4974772;28;20105;-41
2022/12/23 07:55:04;;;;;;;31.65;12.13;;;;;;;13.28;73.50;100626.44;4974997;28;20030;-40
2022/12/23 07:57:36;;;;;;;31.30;12.23;;;;;;;13.31;73.60;100618.56;4975690;28;20026;-42
2022/12/23 08:00:11;;;;;;;31.35;11.68;;;;;;;13.35;73.56;100624.69;4972516;28;20054;-43
2022/12/23 08:02:36;;;;;;;27.98;11.13;;;;;;;13.38;73.46;100625.53;4971761;28;20577;-39
2022/12/23 08:05:02;;;;;;;30.75;11.68;;;;;;;13.34;73.60;100622.94;4973082;28;20030;-40
2022/12/23 08:07:27;;;;;;;33.60;12.15;;;;;;;13.39;73.52;100608.06;4972419;28;20117;-42
2022/12/23 08:09:53;;;;;;;36.97;12.30;;;;;;;13.33;73.52;100616.81;4972432;28;20026;-40
2022/12/23 08:12:18;;;;;;;37.88;13.30;;;;;;;13.27;73.87;100614.22;4972411;28;20027;-40
2022/12/23 08:14:44;;;;;;;34.97;12.30;;;;;;;13.30;73.61;100602.84;4972093;28;20019;-40
2022/12/23 08:17:10;;;;;;;31.02;11.93;;;;;;;13.37;73.83;100591.50;4971870;28;20053;-42
2022/12/23 08:19:35;;;;;;;37.53;12.75;;;;;;;13.40;73.62;100583.63;4971860;28;20034;-40
2022/12/23 08:22:01;;;;;;;32.63;12.07;;;;;;;13.46;73.36;100588.00;4971334;28;20401;-40
2022/12/23 08:24:26;;;;;;;29.63;11.70;;;;;;;13.50;73.52;100587.09;4971230;28;20027;-44
2022/12/23 08:26:51;;;;;;;31.20;11.48;;;;;;;13.39;73.60;100589.75;4971940;28;20050;-40
2022/12/23 08:29:17;;;;;;;31.30;12.18;;;;;;;13.43;73.75;100580.13;4971510;28;20037;-41
2022/12/23 08:31:42;;;;;;;32.35;12.45;;;;;;;13.46;73.62;100578.38;4971118;28;20046;-39
2022/12/23 08:34:07;;;;;;;29.23;11.85;;;;;;;13.45;73.75;100573.16;4971531;28;20051;-40
2022/12/23 08:36:34;;;;;;;28.48;11.60;;;;;;;13.50;73.53;100567.00;4971471;28;20117;-39
2022/12/23 08:39:04;;;;;;;28.73;11.93;;;;;;;13.54;73.30;100565.28;4971327;28;20027;-43
2022/12/23 08:41:33;;;;;;;28.40;11.48;;;;;;;13.47;73.43;100566.16;4970774;28;20027;-41
2022/12/23 08:43:58;;;;;;;26.35;11.02;;;;;;;13.51;73.34;100567.88;4970888;28;20435;-43
2022/12/23 08:46:24;;;;;;;27.48;10.98;;;;;;;13.50;73.22;100566.13;4971208;28;20352;-40
2022/12/23 08:48:50;;;;;;;26.13;10.80;;;;;;;13.48;73.01;100565.28;4971098;28;20057;-40
2022/12/23 08:51:17;;;;;;;28.08;10.70;;;;;;;13.49;73.33;100561.78;4970910;28;20428;-39
2022/12/23 08:53:43;;;;;;;25.13;10.07;;;;;;;13.44;73.74;100558.31;4970951;28;20026;-38
2022/12/23 08:56:14;;;;;;;21.95;9.40;;;;;;;13.53;73.65;100560.91;4970879;28;20033;-41
2022/12/23 08:58:44;;;;;;;19.88;8.75;;;;;;;13.52;73.56;100560.03;4970956;28;20113;-41
2022/12/23 09:01:11;;;;;;;21.45;9.02;;;;;;;13.57;73.47;100560.88;4971047;28;20061;-42
2022/12/23 09:03:37;;;;;;;20.40;8.95;;;;;;;13.58;73.62;100557.41;4971902;28;20031;-43
2022/12/23 09:06:10;;;;;;;18.85;8.40;;;;;;;13.50;73.70;100556.53;4971278;28;20443;-43
2022/12/23 09:08:35;;;;;;;20.23;8.70;;;;;;;13.57;73.81;100552.16;4970654;28;20117;-42
2022/12/23 09:11:02;;;;;;;19.63;8.63;;;;;;;13.59;73.41;100542.56;4970451;28;20067;-42
2022/12/23 09:13:27;;;;;;;16.38;7.80;;;;;;;13.60;73.39;100553.00;4971086;28;20046;-41
2022/12/23 09:15:53;;;;;;;17.52;7.90;;;;;;;13.60;73.33;100550.38;4970978;28;20152;-42
2022/12/23 09:18:18;;;;;;;15.45;7.05;;;;;;;13.58;73.50;100548.66;4971218;28;20030;-40
2022/12/23 09:20:43;;;;;;;15.43;6.95;;;;;;;13.46;73.79;100543.47;4970410;28;20025;-42
2022/12/23 09:23:09;;;;;;;13.43;6.60;;;;;;;13.54;73.71;100549.56;4970953;28;20364;-42
2022/12/23 09:25:35;;;;;;;12.80;6.60;;;;;;;13.63;73.31;100546.88;4970692;28;20550;-42
2022/12/23 09:28:01;;;;;;;13.25;6.60;;;;;;;13.59;73.38;100535.56;4970940;28;20089;-42
2022/12/23 09:30:27;;;;;;;12.60;6.25;;;;;;;13.66;73.21;100528.56;4970285;28;20026;-40
2022/12/23 09:32:52;;;;;;;13.52;6.13;;;;;;;13.63;73.21;100513.72;4970989;28;20027;-41
2022/12/23 09:35:17;;;;;;;10.52;6.10;;;;;;;13.70;72.91;100504.06;4970908;28;20475;-42
2022/12/23 09:37:42;;;;;;;12.23;6.43;;;;;;;13.69;72.57;100499.72;4974400;28;20047;-40
2022/12/23 09:40:12;;;;;;;12.60;6.60;;;;;;;13.69;72.75;100494.47;4974317;28;20066;-41
2022/12/23 09:42:45;;;;;;;14.57;7.00;;;;;;;13.69;72.85;100494.47;4974297;28;20113;-40
2022/12/23 09:45:35;;;;;;;15.75;7.32;;;;;;;13.60;72.85;100478.81;4974422;28;20073;-41
2022/12/23 09:48:02;;;;;;;14.23;7.00;;;;;;;13.67;72.72;100477.88;4974260;28;20030;-42
2022/12/23 09:50:30;;;;;;;12.70;6.63;;;;;;;13.74;72.74;100483.09;4973996;28;20066;-40
2022/12/23 09:53:02;;;;;;;14.10;6.90;;;;;;;13.75;72.63;100487.44;4974450;28;20062;-40
2022/12/23 09:55:50;;;;;;;12.02;6.20;;;;;;;13.81;72.60;100482.16;4974310;28;20134;-42
2022/12/23 09:58:34;;;;;;;14.57;6.80;;;;;;;13.80;72.93;100472.56;4974211;28;20390;-43
2022/12/23 10:00:59;;;;;;;15.05;7.13;;;;;;;13.75;73.14;100481.34;4973911;28;20424;-42
2022/12/23 10:03:31;;;;;;;21.70;7.70;;;;;;;13.67;73.09;100485.72;4974482;28;20027;-42
2022/12/23 10:06:11;;;;;;;21.20;7.88;;;;;;;13.70;72.86;100478.75;4974366;28;20419;-40
2022/12/23 10:08:48;;;;;;;29.27;9.43;;;;;;;13.63;73.19;100481.41;4974445;28;20487;-41
2022/12/23 10:11:19;;;;;;;29.42;9.57;;;;;;;13.71;72.98;100482.25;4973543;28;20215;-41
2022/12/23 10:13:48;;;;;;;35.05;10.20;;;;;;;13.63;73.10;100471.81;4974137;28;20074;-40
2022/12/23 10:16:28;;;;;;;33.17;10.77;;;;;;;13.58;73.18;100475.31;4973747;28;20026;-41
2022/12/23 10:19:01;;;;;;;36.65;11.23;;;;;;;13.57;72.86;100473.56;4974152;28;20090;-42
2022/12/23 10:21:47;;;;;;;36.67;10.55;;;;;;;13.60;72.87;100471.81;4973030;28;20037;-41
2022/12/23 10:24:21;;;;;;;38.60;10.90;;;;;;;13.59;72.86;100466.59;4973599;28;20027;-41
2022/12/23 10:26:55;;;;;;;43.08;10.93;;;;;;;13.68;72.88;100463.91;4973907;28;20325;-40
2022/12/23 10:29:27;;;;;;;44.20;11.70;;;;;;;13.50;73.27;100464.88;4973509;28;20106;-37
2022/12/23 10:32:02;;;;;;;38.40;11.35;;;;;;;13.47;73.37;100458.81;4973244;28;20031;-40
2022/12/23 10:34:57;;;;;;;41.15;11.40;;;;;;;13.60;73.06;100455.25;4973808;28;20085;-40
2022/12/23 10:37:32;;;;;;;36.58;11.35;;;;;;;13.67;72.83;100446.44;4973614;28;20476;-42
2022/12/23 10:40:09;;;;;;;46.78;12.20;;;;;;;13.64;72.95;100452.59;4973422;28;20041;-43
2022/12/23 10:42:43;;;;;;;47.22;12.00;;;;;;;13.69;73.01;100447.31;4973006;28;20038;-41
2022/12/23 10:45:20;;;;;;;47.42;12.75;;;;;;;13.66;72.86;100444.72;4973496;28;20023;-41
2022/12/23 10:48:16;;;;;;;46.67;12.40;;;;;;;13.64;72.99;100438.63;4972239;28;20373;-41
2022/12/23 10:50:59;;;;;;;48.85;13.13;;;;;;;13.60;72.96;100436.91;4973041;28;20064;-39
2022/12/23 10:53:42;;;;;;;46.70;13.63;;;;;;;13.63;73.10;100440.38;4973124;28;20030;-41
2022/12/23 10:56:08;;;;;;;52.15;13.40;;;;;;;13.53;73.25;100438.69;4973085;28;20365;-40
2022/12/23 10:58:41;;;;;;;53.38;14.05;;;;;;;13.61;72.99;100426.41;4973154;28;20030;-39
2022/12/23 11:01:07;;;;;;;45.35;12.98;;;;;;;13.66;72.80;100418.53;4972786;28;20400;-40
2022/12/23 11:03:53;;;;;;;46.25;13.35;;;;;;;13.53;73.33;100422.09;4972805;28;20030;-40
2022/12/23 11:06:18;;;;;;;46.03;13.70;;;;;;;13.67;72.70;100412.38;4972899;28;20046;-39
2022/12/23 11:08:44;;;;;;;49.83;14.05;;;;;;;13.74;72.51;100406.22;4973185;28;20121;-40
2022/12/23 11:11:10;;;;;;;48.45;13.75;;;;;;;13.67;72.69;100400.16;4975528;28;20018;-39
2022/12/23 11:13:38;;;;;;;44.85;14.25;;;;;;;13.67;72.90;100381.81;4976123;28;20475;-41
2022/12/23 11:16:25;;;;;;;46.53;13.57;;;;;;;13.57;73.10;100368.81;4973489;28;20502;-41
2022/12/23 11:18:56;;;;;;;43.35;13.88;;;;;;;13.63;72.63;100363.53;4973014;28;20171;-41
2022/12/23 11:21:22;;;;;;;40.17;14.77;;;;;;;13.67;72.45;100355.63;4972506;28;20106;-40
2022/12/23 11:24:14;;;;;;;46.78;15.32;;;;;;;13.66;72.35;100342.56;4972602;28;20114;-39
2022/12/23 11:26:39;;;;;;;34.90;14.43;;;;;;;13.54;73.02;100347.91;4972665;28;20023;-40
2022/12/23 11:29:10;;;;;;;39.92;14.98;;;;;;;13.55;72.88;100336.50;4972322;28;20048;-39
2022/12/23 11:31:36;;;;;;;38.60;14.90;;;;;;;13.46;73.18;100329.63;4972218;28;20023;-39
2022/12/23 11:34:12;;;;;;;31.58;13.90;;;;;;;13.33;73.63;100326.22;4972648;28;20022;-39
2022/12/23 11:36:38;;;;;;;33.15;14.20;;;;;;;13.52;72.91;100321.72;4972623;28;20534;-41
2022/12/23 11:39:05;;;;;;;32.42;13.63;;;;;;;13.63;72.71;100322.50;4972463;28;20519;-40
2022/12/23 11:41:36;;;;;;;32.00;14.90;;;;;;;13.63;72.58;100319.88;4972338;28;20037;-40
2022/12/23 11:44:19;;;;;;;29.35;14.00;;;;;;;13.53;73.19;100309.50;4972361;28;20030;-41
2022/12/23 11:46:44;;;;;;;28.20;13.90;;;;;;;13.33;73.61;100302.66;4972607;28;20019;-41
2022/12/23 11:49:19;;;;;;;34.33;14.25;;;;;;;13.61;72.79;100297.19;4972131;28;20023;-40
2022/12/23 11:52:02;;;;;;;29.50;14.02;;;;;;;13.55;73.04;100298.09;4972208;28;20034;-40
2022/12/23 11:54:28;;;;;;;30.95;14.52;;;;;;;13.56;73.19;100292.00;4972254;28;20033;-40
2022/12/23 11:56:53;;;;;;;32.58;14.60;;;;;;;13.08;74.64;100273.97;4972131;28;20034;-40